Time;durP1;ratioP1;P1;durP2;ratioP2;P2;SDS_P1;SDS_P2;PMS_P1;PMS_P2;Temp;Humidity;BMP_temperature;BMP_pressure;BME280_temperature;BME280_humidity;BME280_pressure;Samples;Min_cycle;Max_cycle;Signal;HPM_P1;HPM_P2
2023/06/11 00:01:34;;;;;;;9.52;2.88;;;;;;;22.03;38.24;101892.34;5083717;28;20564;-34
2023/06/11 00:04:00;;;;;;;9.00;3.03;;;;;;;22.00;38.25;101898.00;5082696;28;20036;-34
2023/06/11 00:06:25;;;;;;;5.00;2.80;;;;;;;22.00;38.26;101898.00;5072586;28;20020;-33
2023/06/11 00:08:53;;;;;;;5.35;1.60;;;;;;;21.99;37.99;101890.97;5080552;28;20364;-32
2023/06/11 00:11:20;;;;;;;8.40;2.95;;;;;;;21.92;38.29;101896.00;5080951;28;20019;-35
2023/06/11 00:13:45;;;;;;;4.70;2.10;;;;;;;21.91;38.18;101891.63;5082998;28;20516;-34
2023/06/11 00:16:12;;;;;;;8.35;2.78;;;;;;;21.92;38.21;101896.84;5077477;28;20044;-34
2023/06/11 00:18:40;;;;;;;5.25;2.47;;;;;;;21.91;38.40;101889.78;5085809;28;20036;-35
2023/06/11 00:21:10;;;;;;;6.45;3.35;;;;;;;21.89;38.54;101896.28;5083270;28;20036;-34
2023/06/11 00:23:37;;;;;;;5.72;2.25;;;;;;;21.84;38.29;101894.00;5084148;28;20059;-34
2023/06/11 00:26:07;;;;;;;5.93;2.55;;;;;;;21.79;38.63;101896.22;5079763;28;20064;-34
2023/06/11 00:28:33;;;;;;;6.78;2.60;;;;;;;21.77;38.65;101890.16;5086604;28;20071;-32
2023/06/11 00:31:03;;;;;;;6.07;2.40;;;;;;;21.74;38.68;101896.63;5087236;28;20051;-34
2023/06/11 00:33:28;;;;;;;9.57;2.92;;;;;;;21.67;38.60;101897.31;5080209;28;20798;-34
2023/06/11 00:35:54;;;;;;;8.32;2.20;;;;;;;21.55;38.77;101896.50;5086712;28;20032;-34
2023/06/11 00:38:22;;;;;;;7.85;2.80;;;;;;;21.46;39.19;101898.16;5079413;28;20028;-34
2023/06/11 00:40:48;;;;;;;6.50;2.50;;;;;;;21.41;39.20;101897.69;5081503;28;20075;-34
2023/06/11 00:43:13;;;;;;;5.20;2.30;;;;;;;21.39;39.04;101899.66;5083215;28;20063;-33
2023/06/11 00:45:39;;;;;;;7.35;2.45;;;;;;;21.39;39.32;101895.16;5083520;28;20091;-36
2023/06/11 00:48:05;;;;;;;5.78;2.50;;;;;;;21.36;39.74;101890.06;5082910;28;20040;-34
2023/06/11 00:50:45;;;;;;;8.55;2.78;;;;;;;21.30;39.67;101902.13;5081843;28;20429;-34
2023/06/11 00:53:14;;;;;;;5.10;2.45;;;;;;;21.13;39.55;101895.56;5085139;28;20032;-35
2023/06/11 00:55:40;;;;;;;8.60;2.30;;;;;;;21.04;39.96;101893.63;5081206;28;20397;-34
2023/06/11 00:58:13;;;;;;;7.05;2.47;;;;;;;21.05;39.57;101900.69;5082587;28;20020;-34
2023/06/11 01:00:52;;;;;;;4.38;2.33;;;;;;;21.09;39.84;101896.78;5089282;28;20421;-34
2023/06/11 01:03:22;;;;;;;9.43;2.80;;;;;;;21.04;39.63;101892.81;5088680;28;20039;-34
2023/06/11 01:06:01;;;;;;;7.13;2.80;;;;;;;20.97;40.16;101890.63;5090528;28;20028;-34
2023/06/11 01:08:29;;;;;;;6.18;2.33;;;;;;;20.96;40.14;101886.25;5087017;28;20074;-33
2023/06/11 01:10:59;;;;;;;10.10;2.55;;;;;;;20.95;40.24;101886.41;5084359;28;20024;-34
2023/06/11 01:13:25;;;;;;;7.70;2.65;;;;;;;20.83;40.34;101894.47;5084893;28;20114;-34
2023/06/11 01:15:57;;;;;;;8.45;3.00;;;;;;;20.79;40.28;101893.03;5079900;28;20033;-33
2023/06/11 01:18:28;;;;;;;7.85;3.15;;;;;;;20.75;40.25;101890.72;5084842;28;20089;-34
2023/06/11 01:21:07;;;;;;;5.55;2.58;;;;;;;20.77;40.43;101888.81;5087001;28;20111;-34
2023/06/11 01:24:04;;;;;;;4.93;2.53;;;;;;;20.76;40.42;101892.44;5085874;28;20044;-33
2023/06/11 01:26:51;;;;;;;6.07;2.55;;;;;;;20.77;40.18;101891.47;5084330;28;20028;-34
2023/06/11 01:29:21;;;;;;;6.82;2.33;;;;;;;20.77;40.38;101894.97;5086365;28;20020;-34
2023/06/11 01:31:48;;;;;;;5.50;2.53;;;;;;;20.73;40.19;101898.84;5084248;28;20420;-35
2023/06/11 01:34:13;;;;;;;6.97;2.63;;;;;;;20.68;40.11;101895.72;5080413;28;20046;-33
2023/06/11 01:36:39;;;;;;;10.95;3.08;;;;;;;20.60;40.32;101907.06;5087933;28;20036;-34
2023/06/11 01:39:04;;;;;;;6.22;2.70;;;;;;;20.57;40.20;101899.28;5081564;28;20031;-34
2023/06/11 01:41:30;;;;;;;10.38;3.55;;;;;;;20.56;40.24;101903.78;5088983;28;20036;-34
2023/06/11 01:43:56;;;;;;;5.85;2.83;;;;;;;20.58;40.19;101906.31;5084057;28;20515;-34
2023/06/11 01:46:22;;;;;;;8.30;2.53;;;;;;;20.50;40.67;101908.75;5080990;28;20027;-34
2023/06/11 01:48:47;;;;;;;4.82;2.15;;;;;;;20.45;40.66;101911.81;5084111;28;20046;-34
2023/06/11 01:51:14;;;;;;;6.43;2.67;;;;;;;20.35;40.68;101914.38;5076661;28;20093;-34
2023/06/11 01:53:43;;;;;;;5.80;2.83;;;;;;;20.29;40.56;101911.38;5084581;28;20081;-34
2023/06/11 01:56:09;;;;;;;9.40;2.35;;;;;;;20.25;40.72;101913.44;5072969;28;20028;-33
2023/06/11 01:58:37;;;;;;;11.27;2.38;;;;;;;20.26;40.57;101917.81;5083907;28;20051;-35
2023/06/11 02:01:03;;;;;;;7.60;2.88;;;;;;;20.25;40.47;101916.97;5079418;28;20042;-34
2023/06/11 02:03:28;;;;;;;4.95;2.38;;;;;;;20.23;40.74;101912.72;5088487;28;20035;-33
2023/06/11 02:05:54;;;;;;;5.78;2.28;;;;;;;20.14;40.62;101911.63;5083406;28;20044;-32
2023/06/11 02:08:20;;;;;;;4.65;2.30;;;;;;;20.12;40.58;101907.38;5081696;28;20042;-35
2023/06/11 02:10:46;;;;;;;4.70;2.28;;;;;;;20.14;40.80;101908.13;5083515;28;20441;-36
2023/06/11 02:13:12;;;;;;;5.75;3.22;;;;;;;20.19;40.76;101916.63;5084595;28;20045;-34
2023/06/11 02:15:37;;;;;;;7.68;2.15;;;;;;;20.09;40.87;101913.84;5083275;28;20028;-35
2023/06/11 02:18:03;;;;;;;5.18;2.45;;;;;;;20.03;40.61;101912.50;5081466;28;20111;-33
2023/06/11 02:20:28;;;;;;;7.38;2.00;;;;;;;19.99;40.75;101912.84;5081746;28;20069;-32
2023/06/11 02:22:54;;;;;;;10.10;2.55;;;;;;;19.86;41.09;101908.44;5079837;28;20029;-34
2023/06/11 02:25:20;;;;;;;5.25;2.08;;;;;;;19.68;41.40;101913.44;5084567;28;20475;-34
2023/06/11 02:27:47;;;;;;;3.70;1.95;;;;;;;19.65;41.59;101916.34;5081056;28;20024;-33
2023/06/11 02:30:13;;;;;;;5.75;2.50;;;;;;;19.61;41.63;101922.88;5085832;28;20514;-32
2023/06/11 02:32:40;;;;;;;5.30;2.30;;;;;;;19.62;41.69;101922.78;5079782;28;20052;-34
2023/06/11 02:35:06;;;;;;;5.10;2.03;;;;;;;19.60;41.67;101923.84;5086896;28;20048;-34
2023/06/11 02:37:31;;;;;;;11.82;2.90;;;;;;;19.54;41.88;101927.00;5083455;28;20024;-33
2023/06/11 02:39:57;;;;;;;2.42;1.30;;;;;;;19.47;41.87;101930.13;5082340;28;20517;-34
2023/06/11 02:42:22;;;;;;;10.68;1.98;;;;;;;19.38;42.09;101929.97;5084832;28;20106;-34
2023/06/11 02:44:48;;;;;;;6.45;2.75;;;;;;;19.33;42.24;101931.22;5086956;28;20032;-33
2023/06/11 02:47:13;;;;;;;4.95;2.50;;;;;;;19.32;42.19;101929.50;5086971;28;20031;-33
2023/06/11 02:49:38;;;;;;;9.80;2.75;;;;;;;19.34;42.24;101926.72;5083295;28;20032;-33
2023/06/11 02:52:04;;;;;;;4.47;2.15;;;;;;;19.24;42.37;101926.56;5078519;28;20439;-34
2023/06/11 02:54:30;;;;;;;5.25;2.17;;;;;;;19.21;42.52;101928.63;5078635;28;20505;-33
2023/06/11 02:56:56;;;;;;;4.68;2.10;;;;;;;19.10;42.64;101934.75;5077733;28;20028;-32
2023/06/11 02:59:21;;;;;;;2.28;1.33;;;;;;;19.08;42.64;101931.34;5081477;28;20402;-34
2023/06/11 03:01:47;;;;;;;5.07;2.50;;;;;;;19.11;42.85;101939.13;5082972;28;20489;-35
2023/06/11 03:04:12;;;;;;;6.00;2.60;;;;;;;19.08;42.81;101940.22;5083342;28;20488;-32
2023/06/11 03:06:37;;;;;;;5.15;2.13;;;;;;;19.07;42.83;101937.66;5082381;28;20406;-34
2023/06/11 03:09:03;;;;;;;3.83;2.17;;;;;;;19.04;42.82;101936.94;5082816;28;20500;-34
2023/06/11 03:11:28;;;;;;;5.88;2.13;;;;;;;18.97;43.07;101940.19;5081429;28;20402;-32
2023/06/11 03:13:54;;;;;;;6.10;2.40;;;;;;;18.94;43.01;101935.03;5084937;28;20405;-34
2023/06/11 03:16:19;;;;;;;4.82;2.22;;;;;;;18.93;43.06;101928.84;5087908;28;20031;-35
2023/06/11 03:18:45;;;;;;;9.77;2.70;;;;;;;18.91;42.90;101928.09;5085414;28;20395;-34
2023/06/11 03:21:11;;;;;;;7.43;2.72;;;;;;;18.91;43.11;101937.94;5083687;28;20509;-33
2023/06/11 03:23:37;;;;;;;7.22;1.92;;;;;;;18.86;43.32;101939.09;5081574;28;20131;-33
2023/06/11 03:26:02;;;;;;;9.27;4.30;;;;;;;18.86;43.16;101944.44;5079647;28;20047;-35
2023/06/11 03:28:28;;;;;;;4.97;2.45;;;;;;;18.88;43.11;101942.50;5082012;28;20028;-34
2023/06/11 03:30:53;;;;;;;4.13;2.20;;;;;;;18.88;43.07;101937.19;5083562;28;20109;-32
2023/06/11 03:33:18;;;;;;;8.05;2.95;;;;;;;18.91;43.33;101941.44;5078692;28;20027;-34
2023/06/11 03:35:44;;;;;;;7.80;2.10;;;;;;;18.85;43.33;101936.56;5082487;28;20035;-35
2023/06/11 03:38:10;;;;;;;22.27;4.28;;;;;;;18.86;43.35;101941.78;5083620;28;20032;-34
2023/06/11 03:40:35;;;;;;;4.20;1.85;;;;;;;18.84;43.33;101940.19;5082471;28;20024;-33
2023/06/11 03:43:01;;;;;;;5.97;2.28;;;;;;;18.87;43.30;101947.97;5079251;28;20602;-34
2023/06/11 03:45:26;;;;;;;5.25;2.40;;;;;;;18.86;43.23;101944.44;5085129;28;20062;-34
2023/06/11 03:47:55;;;;;;;5.53;1.75;;;;;;;18.81;43.21;101949.28;5080311;28;20032;-34
2023/06/11 03:50:21;;;;;;;7.10;2.38;;;;;;;18.71;43.33;101950.91;5084943;28;20054;-35
2023/06/11 03:52:47;;;;;;;6.15;2.63;;;;;;;18.66;43.54;101945.06;5088772;28;20024;-34
2023/06/11 03:55:13;;;;;;;8.38;3.78;;;;;;;18.62;43.77;101949.75;5082298;28;20040;-33
2023/06/11 03:57:39;;;;;;;4.68;2.33;;;;;;;18.58;43.72;101954.47;5078194;28;20043;-33
2023/06/11 04:00:06;;;;;;;5.97;2.40;;;;;;;18.57;43.73;101960.75;5082834;28;20042;-34
2023/06/11 04:02:31;;;;;;;5.88;1.85;;;;;;;18.63;43.78;101958.63;5082594;28;20539;-34
2023/06/11 04:04:57;;;;;;;6.10;3.05;;;;;;;18.58;43.77;101956.31;5083529;28;20036;-33
2023/06/11 04:07:22;;;;;;;5.90;2.45;;;;;;;18.56;43.76;101952.88;5083441;28;20032;-34
2023/06/11 04:09:48;;;;;;;5.10;2.22;;;;;;;18.54;43.91;101955.66;5084130;28;20119;-36
2023/06/11 04:12:13;;;;;;;3.88;2.28;;;;;;;18.53;44.02;101956.59;5082141;28;20067;-33
2023/06/11 04:14:39;;;;;;;11.85;2.30;;;;;;;18.55;43.64;101957.34;5086117;28;20047;-33
2023/06/11 04:17:05;;;;;;;5.70;2.50;;;;;;;18.63;43.74;101958.63;5084381;28;20114;-35
2023/06/11 04:19:30;;;;;;;10.18;2.42;;;;;;;18.65;43.72;101954.88;5087230;28;20024;-34
2023/06/11 04:21:55;;;;;;;6.47;2.63;;;;;;;18.59;43.90;101958.00;5088500;28;20044;-34
2023/06/11 04:24:21;;;;;;;7.35;2.33;;;;;;;18.58;44.07;101964.28;5083104;28;20032;-34
2023/06/11 04:26:47;;;;;;;4.82;1.92;;;;;;;18.65;44.00;101964.69;5086309;28;20032;-34
2023/06/11 04:29:15;;;;;;;5.65;1.90;;;;;;;18.75;43.71;101963.06;5079816;28;20028;-35
2023/06/11 04:31:46;;;;;;;3.25;1.52;;;;;;;18.83;43.60;101960.66;5079675;28;20055;-34
2023/06/11 04:34:12;;;;;;;5.05;2.05;;;;;;;18.93;43.55;101965.34;5084109;28;20409;-34
2023/06/11 04:36:40;;;;;;;7.85;2.53;;;;;;;18.99;43.56;101970.22;5081174;28;20043;-35
2023/06/11 04:39:06;;;;;;;7.82;2.03;;;;;;;19.10;43.38;101969.44;5074658;28;20056;-34
2023/06/11 04:41:32;;;;;;;9.43;2.85;;;;;;;19.16;43.25;101969.00;5086673;28;20032;-34
2023/06/11 04:44:00;;;;;;;11.95;2.42;;;;;;;19.22;43.19;101967.66;5084963;28;20024;-34
2023/06/11 04:46:27;;;;;;;7.72;3.35;;;;;;;19.24;43.13;101969.25;5084220;28;20048;-34
2023/06/11 04:48:53;;;;;;;8.45;1.98;;;;;;;19.26;43.20;101974.47;5086938;28;20036;-34
2023/06/11 04:51:20;;;;;;;5.40;2.00;;;;;;;19.33;42.87;101962.38;5083465;28;20036;-35
2023/06/11 04:53:46;;;;;;;11.48;6.85;;;;;;;19.33;43.08;101962.38;5081415;28;20028;-34
2023/06/11 04:56:11;;;;;;;11.88;3.05;;;;;;;19.31;43.03;101958.97;5086076;28;20051;-34
2023/06/11 04:58:37;;;;;;;5.38;2.45;;;;;;;19.34;43.15;101953.41;5083220;28;20044;-35
2023/06/11 05:01:07;;;;;;;3.35;2.00;;;;;;;19.36;43.12;101950.63;5081301;28;20032;-36
2023/06/11 05:03:36;;;;;;;7.20;2.22;;;;;;;19.38;43.21;101957.53;5085339;28;20035;-34
2023/06/11 05:06:03;;;;;;;3.35;2.00;;;;;;;19.45;43.13;101961.44;5083844;28;20024;-33
2023/06/11 05:08:29;;;;;;;10.77;4.40;;;;;;;19.54;42.88;101961.72;5089382;28;20032;-34
2023/06/11 05:10:56;;;;;;;10.07;3.20;;;;;;;19.63;42.77;101963.66;5081873;28;20039;-33
2023/06/11 05:13:25;;;;;;;6.22;2.40;;;;;;;19.68;43.02;101969.50;5084035;28;20993;-35
2023/06/11 05:15:59;;;;;;;5.32;2.30;;;;;;;19.70;42.98;101964.91;5087355;28;20033;-34
2023/06/11 05:18:26;;;;;;;9.10;2.85;;;;;;;19.76;42.77;101967.06;5084744;28;20027;-35
2023/06/11 05:20:53;;;;;;;6.15;2.13;;;;;;;19.83;42.64;101966.59;5082387;28;20502;-35
2023/06/11 05:23:22;;;;;;;5.95;2.30;;;;;;;19.89;42.92;101964.34;5080451;28;20043;-34
2023/06/11 05:25:49;;;;;;;5.65;2.60;;;;;;;19.92;42.57;101963.25;5081188;28;20610;-35
2023/06/11 05:28:15;;;;;;;3.47;2.10;;;;;;;19.96;42.52;101962.03;5086673;28;20130;-35
2023/06/11 05:30:50;;;;;;;4.80;2.25;;;;;;;20.01;42.33;101965.22;5084778;28;20095;-33
2023/06/11 05:33:20;;;;;;;3.72;1.95;;;;;;;20.09;42.14;101970.78;5079072;28;20059;-34
2023/06/11 05:35:46;;;;;;;6.28;2.60;;;;;;;20.14;41.99;101967.75;5086001;28;20438;-34
2023/06/11 05:38:11;;;;;;;5.45;2.65;;;;;;;20.10;42.22;101967.13;5085677;28;20081;-34
2023/06/11 05:40:37;;;;;;;8.32;2.05;;;;;;;20.16;42.01;101970.31;5080731;28;20035;-34
2023/06/11 05:43:04;;;;;;;4.50;2.10;;;;;;;20.23;41.98;101977.72;5081964;28;20024;-34
2023/06/11 05:45:33;;;;;;;3.92;2.53;;;;;;;20.30;41.97;101971.84;5082831;28;20049;-34
2023/06/11 05:47:59;;;;;;;4.18;1.98;;;;;;;20.32;41.91;101970.78;5084286;28;20485;-35
2023/06/11 05:50:25;;;;;;;7.80;2.40;;;;;;;20.34;41.70;101974.19;5083412;28;20513;-34
2023/06/11 05:52:50;;;;;;;12.82;6.95;;;;;;;20.38;41.75;101974.78;5079866;28;20024;-34
2023/06/11 05:55:16;;;;;;;7.45;3.63;;;;;;;20.41;41.40;101972.72;5086192;28;20024;-34
2023/06/11 05:57:41;;;;;;;8.20;2.15;;;;;;;20.46;41.28;101974.16;5085589;28;20131;-36
2023/06/11 06:00:10;;;;;;;7.82;2.67;;;;;;;20.48;41.35;101974.91;5083050;28;20066;-35
2023/06/11 06:02:35;;;;;;;4.55;2.00;;;;;;;20.50;41.36;101972.94;5084296;28;20525;-35
2023/06/11 06:05:00;;;;;;;8.63;2.17;;;;;;;20.56;41.16;101970.63;5084174;28;20048;-34
2023/06/11 06:07:26;;;;;;;4.97;2.45;;;;;;;20.60;41.21;101976.56;5078864;28;20035;-34
2023/06/11 06:09:51;;;;;;;6.80;2.58;;;;;;;20.64;41.01;101978.03;5080402;28;20089;-36
2023/06/11 06:12:17;;;;;;;4.95;2.25;;;;;;;20.68;40.84;101979.47;5087802;28;20024;-34
2023/06/11 06:14:42;;;;;;;6.50;1.73;;;;;;;20.73;41.06;101980.91;5082039;28;20501;-34
2023/06/11 06:17:08;;;;;;;8.10;2.47;;;;;;;20.76;40.80;101972.69;5087391;28;20494;-35
2023/06/11 06:19:33;;;;;;;5.25;2.15;;;;;;;20.79;40.84;101977.78;5085849;28;20036;-34
2023/06/11 06:21:58;;;;;;;8.35;2.53;;;;;;;20.82;40.69;101977.50;5082892;28;20063;-35
2023/06/11 06:24:24;;;;;;;5.07;2.13;;;;;;;20.83;40.86;101984.56;5083955;28;20038;-35
2023/06/11 06:26:56;;;;;;;9.65;2.83;;;;;;;20.90;40.91;101972.41;5083240;28;20510;-34
2023/06/11 06:29:28;;;;;;;13.25;4.82;;;;;;;20.94;40.55;101973.84;5088050;28;20413;-35
2023/06/11 06:31:54;;;;;;;;;;;;;;;20.94;40.82;101981.00;5083728;28;20428;-34
2023/06/11 06:34:19;;;;;;;7.40;2.22;;;;;;;20.98;40.87;101979.78;5080270;28;19960;-34
2023/06/11 06:36:45;;;;;;;16.95;4.50;;;;;;;21.01;40.77;101980.38;5084570;28;20074;-33
2023/06/11 06:39:11;;;;;;;11.07;2.63;;;;;;;21.08;40.98;101977.22;5079038;28;20033;-34
2023/06/11 06:41:36;;;;;;;17.02;4.03;;;;;;;21.15;40.78;101978.38;5082240;28;20032;-34
2023/06/11 06:44:02;;;;;;;11.25;3.00;;;;;;;21.24;40.47;101976.75;5081301;28;20028;-34
2023/06/11 06:46:27;;;;;;;8.73;2.33;;;;;;;21.28;40.56;101968.34;5083556;28;20525;-34
2023/06/11 06:48:53;;;;;;;5.20;2.67;;;;;;;21.32;40.70;101974.31;5085452;28;20408;-36
2023/06/11 06:51:20;;;;;;;8.82;2.60;;;;;;;21.37;40.32;101971.22;5085403;28;20493;-34
2023/06/11 06:53:48;;;;;;;11.15;2.22;;;;;;;21.43;40.40;101962.66;5079532;28;20119;-35
2023/06/11 06:56:14;;;;;;;4.93;2.47;;;;;;;21.47;40.06;101969.47;5084495;28;20024;-35
2023/06/11 06:58:40;;;;;;;8.32;2.40;;;;;;;21.53;40.11;101971.63;5081416;28;20036;-34
2023/06/11 07:01:06;;;;;;;8.30;2.60;;;;;;;21.58;40.06;101973.91;5087547;28;20103;-35
2023/06/11 07:03:33;;;;;;;6.45;2.47;;;;;;;21.62;40.26;101968.19;5086278;28;20086;-34
2023/06/11 07:05:59;;;;;;;10.73;2.88;;;;;;;21.65;40.35;101980.44;5085871;28;20032;-34
2023/06/11 07:08:26;;;;;;;10.98;2.33;;;;;;;21.67;40.34;101978.50;5088069;28;20055;-34
2023/06/11 07:10:55;;;;;;;5.88;2.53;;;;;;;21.70;40.43;101977.41;5084804;28;20039;-35
2023/06/11 07:13:21;;;;;;;9.00;2.70;;;;;;;21.74;40.55;101976.13;5084720;28;20016;-34
2023/06/11 07:15:47;;;;;;;5.72;2.35;;;;;;;21.78;40.00;101982.94;5085781;28;20085;-34
2023/06/11 07:18:13;;;;;;;7.57;2.65;;;;;;;21.82;40.12;101978.16;5084830;28;20064;-35
2023/06/11 07:20:38;;;;;;;6.13;2.72;;;;;;;21.85;40.18;101981.44;5080395;28;20454;-34
2023/06/11 07:23:04;;;;;;;6.20;2.60;;;;;;;21.87;40.12;101979.44;5086839;28;20058;-34
2023/06/11 07:25:30;;;;;;;6.95;2.72;;;;;;;21.89;40.01;101972.13;5077960;28;20043;-33
2023/06/11 07:28:01;;;;;;;7.78;3.47;;;;;;;21.94;40.41;101974.41;5077972;28;20071;-35
2023/06/11 07:30:27;;;;;;;10.82;6.05;;;;;;;21.96;40.27;101971.59;5082823;28;20034;-35
2023/06/11 07:32:53;;;;;;;11.25;5.93;;;;;;;22.01;40.07;101972.03;5086956;28;20364;-35
2023/06/11 07:35:20;;;;;;;8.68;3.70;;;;;;;22.04;40.25;101971.78;5086556;28;20040;-34
2023/06/11 07:37:46;;;;;;;11.57;4.10;;;;;;;22.06;40.16;101972.50;5081087;28;20039;-34
2023/06/11 07:40:12;;;;;;;8.45;3.15;;;;;;;22.11;40.45;101974.75;5084626;28;20104;-34
2023/06/11 07:42:38;;;;;;;11.52;3.42;;;;;;;22.13;40.39;101973.66;5085952;28;20115;-35
2023/06/11 07:45:06;;;;;;;6.57;3.60;;;;;;;22.19;40.38;101983.00;5083314;28;20112;-33
2023/06/11 07:47:32;;;;;;;8.73;3.00;;;;;;;22.22;40.05;101975.53;5081380;28;20028;-35
2023/06/11 07:49:57;;;;;;;10.93;3.35;;;;;;;22.27;40.34;101974.28;5085120;28;20326;-34
2023/06/11 07:52:23;;;;;;;5.53;2.85;;;;;;;22.27;40.18;101980.47;5086670;28;20036;-35
2023/06/11 07:54:48;;;;;;;6.40;3.30;;;;;;;22.28;40.46;101982.16;5086710;28;20030;-34
2023/06/11 07:57:13;;;;;;;6.20;3.08;;;;;;;22.33;40.65;101982.63;5079397;28;20287;-34
2023/06/11 07:59:42;;;;;;;5.95;2.92;;;;;;;22.38;40.28;101984.88;5072792;28;20482;-34
2023/06/11 08:02:08;;;;;;;11.65;3.88;;;;;;;22.41;40.43;101971.22;5082347;28;20028;-35
2023/06/11 08:04:34;;;;;;;3.58;2.45;;;;;;;22.44;40.25;101972.78;5076882;28;20043;-33
2023/06/11 08:07:00;;;;;;;7.22;3.38;;;;;;;22.49;40.60;101974.06;5074001;28;20036;-34
2023/06/11 08:09:25;;;;;;;8.38;3.00;;;;;;;22.52;40.41;101971.13;5081540;28;20028;-35
2023/06/11 08:11:51;;;;;;;17.65;3.60;;;;;;;22.58;40.61;101971.56;5087337;28;20031;-34
2023/06/11 08:14:18;;;;;;;6.10;3.50;;;;;;;22.59;40.96;101973.28;5086166;28;20104;-33
2023/06/11 08:16:45;;;;;;;5.82;3.30;;;;;;;22.63;40.65;101975.53;5086853;28;20422;-35
2023/06/11 08:19:11;;;;;;;6.43;3.60;;;;;;;22.68;40.66;101977.78;5090413;28;20073;-36
2023/06/11 08:21:37;;;;;;;6.70;3.40;;;;;;;22.70;40.58;101970.47;5084434;28;20072;-36
2023/06/11 08:24:03;;;;;;;11.90;5.43;;;;;;;22.76;40.96;101974.41;5085827;28;20090;-34
2023/06/11 08:26:29;;;;;;;7.20;3.65;;;;;;;22.79;40.84;101969.63;5085745;28;20043;-35
2023/06/11 08:28:54;;;;;;;13.77;6.75;;;;;;;22.84;40.61;101971.88;5082063;28;20143;-36
2023/06/11 08:31:20;;;;;;;12.43;7.97;;;;;;;22.87;40.60;101976.13;5089065;28;20085;-33
2023/06/11 08:33:46;;;;;;;17.15;9.18;;;;;;;22.88;40.57;101959.06;5089359;28;20571;-35
2023/06/11 08:36:11;;;;;;;12.45;5.45;;;;;;;22.91;40.96;101956.09;5086812;28;20064;-34
2023/06/11 08:38:37;;;;;;;11.90;5.13;;;;;;;22.91;41.02;101962.28;5084433;28;20047;-34
2023/06/11 08:41:02;;;;;;;12.55;4.93;;;;;;;22.93;41.08;101959.44;5078025;28;20505;-34
2023/06/11 08:43:28;;;;;;;6.45;3.10;;;;;;;22.97;41.21;101960.88;5081905;28;20024;-35
2023/06/11 08:45:53;;;;;;;6.82;3.80;;;;;;;23.00;40.97;101965.97;5083151;28;20039;-34
2023/06/11 08:48:22;;;;;;;5.43;3.55;;;;;;;23.03;41.42;101952.28;5086409;28;20734;-34
2023/06/11 08:50:49;;;;;;;7.80;3.70;;;;;;;23.08;41.09;101949.16;5073990;28;20039;-34
2023/06/11 08:53:15;;;;;;;7.88;3.63;;;;;;;23.12;41.02;101947.91;5075891;28;20158;-34
2023/06/11 08:55:41;;;;;;;6.15;3.25;;;;;;;23.17;41.22;101958.19;5088423;28;20119;-34
2023/06/11 08:58:11;;;;;;;8.63;3.90;;;;;;;23.17;41.54;101947.47;5081779;28;20044;-34
2023/06/11 09:00:37;;;;;;;7.25;3.38;;;;;;;23.21;41.43;101946.22;5087720;28;20040;-34
2023/06/11 09:03:05;;;;;;;7.57;3.97;;;;;;;23.26;41.56;101946.63;5084162;28;20040;-34
2023/06/11 09:05:31;;;;;;;9.23;4.35;;;;;;;23.29;41.80;101951.72;5088850;28;20072;-34
2023/06/11 09:07:57;;;;;;;7.40;3.70;;;;;;;23.33;41.82;101949.56;5079125;28;20028;-34
2023/06/11 09:10:23;;;;;;;6.40;4.03;;;;;;;23.34;41.61;101930.66;5088842;28;20028;-35
2023/06/11 09:12:48;;;;;;;6.53;3.65;;;;;;;23.36;41.73;101934.06;5077582;28;20023;-35
2023/06/11 09:15:15;;;;;;;14.45;5.68;;;;;;;23.41;42.10;101936.28;5077851;28;20043;-34
2023/06/11 09:17:42;;;;;;;12.52;6.90;;;;;;;23.43;42.34;101935.16;5069976;28;20042;-34
2023/06/11 09:20:10;;;;;;;8.52;3.95;;;;;;;23.48;42.24;101931.19;5075382;28;20123;-35
2023/06/11 09:22:38;;;;;;;10.75;4.05;;;;;;;23.51;42.31;101928.22;5079268;28;20024;-34
2023/06/11 09:25:16;;;;;;;6.43;3.95;;;;;;;23.56;42.29;101926.78;5080562;28;20028;-35
2023/06/11 09:27:44;;;;;;;8.30;5.05;;;;;;;23.57;42.58;101936.53;5082021;28;20032;-35
2023/06/11 09:30:16;;;;;;;5.80;4.15;;;;;;;23.61;42.38;101934.41;5074704;28;20115;-34
2023/06/11 09:32:42;;;;;;;;;;;;;;;23.65;42.88;101933.13;5078575;28;20418;-35
2023/06/11 09:35:09;;;;;;;9.48;3.92;;;;;;;23.69;42.29;101929.13;5085724;28;20412;-36
2023/06/11 09:37:40;;;;;;;8.73;4.57;;;;;;;23.74;42.58;101926.88;5078393;28;20491;-34
2023/06/11 09:40:08;;;;;;;7.00;4.18;;;;;;;23.78;42.48;101926.56;5073732;28;20032;-34
2023/06/11 09:42:34;;;;;;;5.53;3.80;;;;;;;23.80;42.46;101925.44;5081709;28;20646;-36
2023/06/11 09:45:01;;;;;;;8.20;4.47;;;;;;;23.88;42.58;101930.06;5082494;28;20036;-35
2023/06/11 09:47:35;;;;;;;7.55;3.88;;;;;;;23.94;42.62;101925.94;5070746;28;20662;-34
2023/06/11 09:50:02;;;;;;;10.68;4.10;;;;;;;23.98;42.53;101917.44;5089814;22;20043;-33
2023/06/11 09:52:32;;;;;;;7.22;3.97;;;;;;;24.05;42.43;101934.69;5005550;28;20492;-33
2023/06/11 09:54:59;;;;;;;10.73;4.50;;;;;;;24.08;42.36;101930.00;5007755;28;20037;-33
2023/06/11 09:57:28;;;;;;;5.80;4.50;;;;;;;24.12;42.30;101918.81;5020703;28;20112;-33
2023/06/11 09:59:55;;;;;;;7.25;4.82;;;;;;;24.18;42.55;101914.66;4999977;28;20033;-34
2023/06/11 10:02:24;;;;;;;10.40;5.10;;;;;;;24.24;42.42;101918.59;5012369;28;20025;-34
2023/06/11 10:04:57;;;;;;;6.55;3.83;;;;;;;24.28;42.71;101917.31;5007974;28;20095;-34
2023/06/11 10:07:24;;;;;;;7.93;4.22;;;;;;;24.31;42.40;101923.22;5014769;28;20022;-34
2023/06/11 10:09:52;;;;;;;9.60;5.90;;;;;;;24.37;42.49;101920.94;5021413;28;20076;-34
2023/06/11 10:12:23;;;;;;;11.55;8.77;;;;;;;24.40;42.57;101926.03;5020044;28;20031;-34
2023/06/11 10:14:57;;;;;;;11.10;6.13;;;;;;;24.44;42.30;101916.63;5022570;28;20475;-34
2023/06/11 10:17:26;;;;;;;7.88;4.75;;;;;;;24.44;42.35;101913.94;5004690;28;20037;-34
2023/06/11 10:19:52;;;;;;;7.18;5.05;;;;;;;24.45;42.19;101912.94;5023166;28;20034;-34
2023/06/11 10:22:41;;;;;;;8.65;4.80;;;;;;;24.57;42.47;101910.88;5015237;28;20032;-34
2023/06/11 10:25:12;;;;;;;6.43;4.35;;;;;;;24.65;42.14;101911.81;5021626;28;20065;-35
2023/06/11 10:27:44;;;;;;;10.93;5.28;;;;;;;24.76;41.91;101912.59;5021302;28;20308;-35
2023/06/11 10:30:10;;;;;;;9.25;4.75;;;;;;;24.80;41.89;101904.09;5023687;28;20107;-35
2023/06/11 10:32:35;;;;;;;8.55;4.43;;;;;;;24.90;42.07;101911.22;5020633;28;20101;-33
2023/06/11 10:35:06;;;;;;;5.60;3.13;;;;;;;25.00;41.89;101905.75;4998396;28;20034;-35
2023/06/11 10:37:42;;;;;;;8.57;5.90;;;;;;;25.13;41.13;101906.19;5020847;28;20403;-35
2023/06/11 10:40:08;;;;;;;6.47;4.65;;;;;;;25.14;41.21;101907.88;5002581;28;20052;-35
2023/06/11 10:42:44;;;;;;;10.30;5.00;;;;;;;25.16;40.85;101902.31;5024579;28;20029;-35
2023/06/11 10:45:14;;;;;;;7.10;4.55;;;;;;;25.20;40.73;101896.47;5019917;28;20038;-35
2023/06/11 10:47:46;;;;;;;9.25;6.63;;;;;;;25.41;40.64;101897.97;5007097;28;20075;-35
2023/06/11 10:50:24;;;;;;;11.32;4.93;;;;;;;25.45;40.49;101899.38;5023040;28;20033;-35
2023/06/11 10:52:54;;;;;;;10.20;4.65;;;;;;;25.56;40.44;101899.09;5028448;28;20498;-35
2023/06/11 10:55:24;;;;;;;6.00;4.80;;;;;;;25.54;40.29;101901.09;5022085;28;20029;-35
2023/06/11 10:57:57;;;;;;;7.88;4.22;;;;;;;25.59;40.21;101897.09;5028303;28;20487;-35
2023/06/11 11:00:23;;;;;;;9.15;4.88;;;;;;;25.65;39.89;101904.50;5003258;28;20041;-35
2023/06/11 11:02:51;;;;;;;9.32;5.43;;;;;;;25.66;39.93;101900.81;5032830;28;20025;-35
2023/06/11 11:05:22;;;;;;;7.43;4.60;;;;;;;25.89;39.44;101895.69;5026510;28;20033;-35
2023/06/11 11:07:48;;;;;;;10.43;7.03;;;;;;;25.94;39.39;101889.84;5026933;28;20035;-35
2023/06/11 11:10:19;;;;;;;7.75;4.93;;;;;;;25.95;38.96;101891.50;5032795;28;20026;-35
2023/06/11 11:12:50;;;;;;;9.93;5.40;;;;;;;25.96;39.14;101895.88;5030668;28;20041;-35
2023/06/11 11:15:18;;;;;;;9.27;4.87;;;;;;;25.97;38.92;101886.81;5025888;28;20279;-35
2023/06/11 11:17:44;;;;;;;10.50;5.38;;;;;;;26.02;38.62;101889.84;5027272;28;20414;-35
2023/06/11 11:20:14;;;;;;;8.45;4.93;;;;;;;26.09;38.54;101888.19;5022179;28;20468;-34
2023/06/11 11:22:47;;;;;;;7.40;4.88;;;;;;;26.20;38.22;101895.16;5026836;28;20096;-34
2023/06/11 11:25:22;;;;;;;7.28;4.68;;;;;;;26.28;37.80;101888.94;5007047;28;20616;-34